createdAt,value
2023-03-21T00:01:56.570Z,1.80
2023-03-21T00:04:24.923Z,1.80
2023-03-21T00:06:51.484Z,1.50
2023-03-21T00:09:18.720Z,1.80
2023-03-21T00:11:45.735Z,1.80
2023-03-21T00:14:14.936Z,1.40
2023-03-21T00:16:41.873Z,2.00
2023-03-21T00:19:09.766Z,2.30
2023-03-21T00:21:49.123Z,1.90
2023-03-21T00:24:23.280Z,2.40
2023-03-21T00:26:50.541Z,1.90
2023-03-21T00:29:17.556Z,1.80
2023-03-21T00:31:44.069Z,2.00
2023-03-21T00:36:42.241Z,2.10
2023-03-21T00:39:09.726Z,2.10
2023-03-21T00:41:42.773Z,2.20
2023-03-21T00:44:13.719Z,1.90
2023-03-21T00:46:48.990Z,1.90
2023-03-21T00:49:21.077Z,1.80
2023-03-21T00:51:51.767Z,1.90
2023-03-21T00:54:18.536Z,1.60
2023-03-21T00:56:45.288Z,1.80
2023-03-21T00:59:11.710Z,1.90
2023-03-21T01:01:38.263Z,1.90
2023-03-21T01:04:07.423Z,2.00
2023-03-21T01:06:39.986Z,1.50
2023-03-21T01:09:13.077Z,2.00
2023-03-21T01:11:40.346Z,1.90
2023-03-21T01:14:21.494Z,1.90
2023-03-21T01:16:50.358Z,1.90
2023-03-21T01:19:25.529Z,2.00
2023-03-21T01:21:55.196Z,2.00
2023-03-21T01:24:22.235Z,1.70
2023-03-21T01:26:48.770Z,1.80
2023-03-21T01:29:15.327Z,1.80
2023-03-21T01:31:41.851Z,1.50
2023-03-21T01:34:08.298Z,1.60
2023-03-21T01:36:34.792Z,1.60
2023-03-21T01:39:01.225Z,1.80
2023-03-21T01:41:42.572Z,2.30
2023-03-21T01:44:17.278Z,2.10
2023-03-21T01:47:11.483Z,2.00
2023-03-21T01:49:46.062Z,2.20
2023-03-21T01:52:29.658Z,2.00
2023-03-21T01:55:03.854Z,1.90
2023-03-21T01:57:45.133Z,1.70
2023-03-21T02:00:15.665Z,1.70
2023-03-21T02:02:52.146Z,2.20
2023-03-21T02:05:22.443Z,1.80
2023-03-21T02:07:50.453Z,1.60
2023-03-21T02:10:17.031Z,1.80
2023-03-21T02:12:43.442Z,1.80
2023-03-21T02:15:11.087Z,2.00
2023-03-21T02:20:11.677Z,1.60
2023-03-21T02:23:24.708Z,1.70
2023-03-21T02:26:14.293Z,1.60
2023-03-21T02:28:51.971Z,1.50
2023-03-21T02:31:40.700Z,1.60
2023-03-21T02:34:40.592Z,1.50
2023-03-21T02:37:38.809Z,1.60
2023-03-21T02:40:27.104Z,2.40
2023-03-21T02:43:22.626Z,1.80
2023-03-21T02:46:08.715Z,1.80
2023-03-21T02:48:50.220Z,1.70
2023-03-21T02:51:21.574Z,1.70
2023-03-21T02:54:24.576Z,1.80
2023-03-21T02:59:14.621Z,2.00
2023-03-21T03:01:41.100Z,2.00
2023-03-21T03:04:29.571Z,1.70
2023-03-21T03:06:58.759Z,2.00
2023-03-21T03:09:49.038Z,2.10
2023-03-21T03:12:26.350Z,1.80
2023-03-21T03:15:17.818Z,2.10
2023-03-21T03:18:03.022Z,2.40
2023-03-21T03:20:52.664Z,2.10
2023-03-21T03:23:52.004Z,2.10
2023-03-21T03:26:41.366Z,1.90
2023-03-21T03:29:13.377Z,1.60
2023-03-21T03:31:45.366Z,2.00
2023-03-21T03:34:20.762Z,1.80
2023-03-21T03:36:56.286Z,1.60
2023-03-21T03:39:29.752Z,1.50
2023-03-21T03:42:15.553Z,1.90
2023-03-21T03:44:48.541Z,1.90
2023-03-21T03:47:33.688Z,2.10
2023-03-21T03:50:08.992Z,1.90
2023-03-21T03:52:53.632Z,2.00
2023-03-21T03:55:23.640Z,1.70
2023-03-21T03:57:50.404Z,1.80
2023-03-21T04:00:17.605Z,1.80
2023-03-21T04:02:45.571Z,1.70
2023-03-21T04:05:12.361Z,2.60
2023-03-21T04:07:39.295Z,1.80
2023-03-21T04:10:06.209Z,2.20
2023-03-21T04:12:32.629Z,1.50
2023-03-21T04:15:08.136Z,1.70
2023-03-21T04:17:38.296Z,1.90
2023-03-21T04:20:12.012Z,1.90
2023-03-21T04:22:41.980Z,1.80
2023-03-21T04:25:09.187Z,1.40
2023-03-21T04:27:35.670Z,1.70
2023-03-21T04:30:03.415Z,1.60
2023-03-21T04:32:34.019Z,1.90
2023-03-21T04:35:01.116Z,2.00
2023-03-21T04:37:27.983Z,1.80
2023-03-21T04:39:54.505Z,1.80
2023-03-21T04:42:21.143Z,1.90
2023-03-21T04:44:48.988Z,2.20
2023-03-21T04:47:16.595Z,1.90
2023-03-21T04:52:09.714Z,2.10
2023-03-21T04:54:36.172Z,1.80
2023-03-21T04:57:02.911Z,2.40
2023-03-21T04:59:29.367Z,2.20
2023-03-21T05:01:56.918Z,2.20
2023-03-21T05:04:23.448Z,2.30
2023-03-21T05:06:50.027Z,2.20
2023-03-21T05:09:16.635Z,2.30
2023-03-21T05:11:44.052Z,1.90
2023-03-21T05:14:14.800Z,1.90
2023-03-21T05:17:04.215Z,2.10
2023-03-21T05:19:40.759Z,2.20
2023-03-21T05:22:10.294Z,2.00
2023-03-21T05:24:39.394Z,2.10
2023-03-21T05:27:05.912Z,2.00
2023-03-21T05:29:33.709Z,2.80
2023-03-21T05:32:01.443Z,2.20
2023-03-21T05:34:28.734Z,2.00
2023-03-21T05:36:55.734Z,2.10
2023-03-21T05:39:22.264Z,2.40
2023-03-21T05:41:48.723Z,3.00
2023-03-21T05:44:15.573Z,2.10
2023-03-21T05:46:43.379Z,2.20
2023-03-21T05:49:11.453Z,2.10
2023-03-21T05:51:38.002Z,2.20
2023-03-21T05:54:04.511Z,2.10
2023-03-21T05:56:31.028Z,2.50
2023-03-21T05:58:57.463Z,2.20
2023-03-21T06:01:24.100Z,2.60
2023-03-21T06:03:50.600Z,1.70
2023-03-21T06:06:17.063Z,2.10
2023-03-21T06:08:43.536Z,2.20
2023-03-21T06:11:20.742Z,2.90
2023-03-21T06:13:47.188Z,2.80
2023-03-21T06:16:13.699Z,2.90
2023-03-21T06:18:40.251Z,2.00
2023-03-21T06:21:07.012Z,2.50
2023-03-21T06:23:33.590Z,2.50
2023-03-21T06:26:00.301Z,3.00
2023-03-21T06:28:26.865Z,2.60
2023-03-21T06:30:53.336Z,2.50
2023-03-21T06:33:19.826Z,3.00
2023-03-21T06:35:51.970Z,2.60
2023-03-21T06:38:18.453Z,2.80
2023-03-21T06:40:48.636Z,2.50
2023-03-21T06:43:18.692Z,2.90
2023-03-21T06:45:46.171Z,2.80
2023-03-21T06:48:12.783Z,2.90
2023-03-21T06:50:39.477Z,2.40
2023-03-21T06:53:06.520Z,2.70
2023-03-21T06:55:32.980Z,2.00
2023-03-21T06:57:59.429Z,2.50
2023-03-21T07:00:26.213Z,2.60
2023-03-21T07:02:53.886Z,2.40
2023-03-21T07:05:20.687Z,2.70
2023-03-21T07:07:48.484Z,3.00
2023-03-21T07:10:15.020Z,2.60
2023-03-21T07:12:41.583Z,2.70
2023-03-21T07:15:09.315Z,2.90
2023-03-21T07:17:35.849Z,2.90
2023-03-21T07:20:04.177Z,1.40
2023-03-21T07:22:30.600Z,2.60
2023-03-21T07:25:04.754Z,2.60
2023-03-21T07:27:32.120Z,3.00
2023-03-21T07:29:58.699Z,2.50
2023-03-21T07:32:30.065Z,1.40
2023-03-21T07:34:56.789Z,2.60
2023-03-21T07:37:24.009Z,2.90
2023-03-21T07:39:51.458Z,2.80
2023-03-21T07:44:44.613Z,1.90
2023-03-21T07:47:11.223Z,2.10
2023-03-21T07:49:37.910Z,2.30
2023-03-21T07:52:06.758Z,1.90
2023-03-21T07:54:33.692Z,3.10
2023-03-21T07:57:00.258Z,2.90
2023-03-21T07:59:26.881Z,1.80
2023-03-21T08:01:53.356Z,1.90
2023-03-21T08:04:19.970Z,2.60
2023-03-21T08:06:46.493Z,1.60
2023-03-21T08:09:13.035Z,2.00
2023-03-21T08:11:40.672Z,2.70
2023-03-21T08:14:07.326Z,1.90
2023-03-21T08:16:33.797Z,1.80
2023-03-21T08:19:00.612Z,2.70
2023-03-21T08:21:27.640Z,2.90
2023-03-21T08:23:54.187Z,2.00
2023-03-21T08:26:21.408Z,1.30
2023-03-21T08:28:47.871Z,2.20
2023-03-21T08:31:15.017Z,1.00
2023-03-21T08:33:41.531Z,1.60
2023-03-21T08:36:08.722Z,1.90
2023-03-21T08:38:35.964Z,1.90
2023-03-21T08:41:02.976Z,2.20
2023-03-21T08:43:29.861Z,2.40
2023-03-21T08:45:56.831Z,2.70
2023-03-21T08:48:23.405Z,1.60
2023-03-21T08:50:50.031Z,4.70
2023-03-21T08:53:16.504Z,2.50
2023-03-21T08:55:44.776Z,1.80
2023-03-21T08:58:11.344Z,2.10
2023-03-21T09:00:37.872Z,2.50
2023-03-21T09:03:04.966Z,2.40
2023-03-21T09:05:31.593Z,2.40
2023-03-21T09:07:58.114Z,1.90
2023-03-21T09:10:24.586Z,1.50
2023-03-21T09:12:52.910Z,1.90
2023-03-21T09:15:21.942Z,2.10
2023-03-21T09:17:52.851Z,1.40
2023-03-21T09:20:25.980Z,1.20
2023-03-21T09:22:53.802Z,1.60
2023-03-21T09:25:21.701Z,1.20
2023-03-21T09:27:48.366Z,2.90
2023-03-21T09:30:20.094Z,0.90
2023-03-21T09:32:48.693Z,1.60
2023-03-21T09:35:19.606Z,1.30
2023-03-21T09:37:47.312Z,1.30
2023-03-21T09:40:31.221Z,1.60
2023-03-21T09:43:08.110Z,1.70
2023-03-21T09:45:50.557Z,1.70
2023-03-21T09:48:37.621Z,1.70
2023-03-21T09:51:15.852Z,1.30
2023-03-21T09:53:44.925Z,1.60
2023-03-21T09:56:13.653Z,1.60
2023-03-21T09:58:46.704Z,1.90
2023-03-21T10:01:28.284Z,1.90
2023-03-21T10:03:56.740Z,1.20
2023-03-21T10:06:30.652Z,1.40
2023-03-21T10:09:09.263Z,1.10
2023-03-21T10:11:44.344Z,1.20
2023-03-21T10:14:21.409Z,1.20
2023-03-21T10:16:52.478Z,1.40
2023-03-21T10:19:19.795Z,1.30
2023-03-21T10:22:01.348Z,1.50
2023-03-21T10:24:31.796Z,1.70
2023-03-21T10:26:59.039Z,1.40
2023-03-21T10:29:30.586Z,1.30
2023-03-21T10:31:57.225Z,1.10
2023-03-21T10:37:24.041Z,1.50
2023-03-21T10:39:53.747Z,1.40
2023-03-21T10:42:23.933Z,1.40
2023-03-21T10:44:53.335Z,1.30
2023-03-21T10:47:26.014Z,1.60
2023-03-21T10:52:41.943Z,1.40
2023-03-21T10:55:19.575Z,1.30
2023-03-21T10:57:47.263Z,1.20
2023-03-21T11:00:25.669Z,1.30
2023-03-21T11:02:54.414Z,1.60
2023-03-21T11:05:33.026Z,1.70
2023-03-21T11:10:38.023Z,1.50
2023-03-21T11:13:17.670Z,1.80
2023-03-21T11:16:03.702Z,1.60
2023-03-21T11:18:33.319Z,1.50
2023-03-21T11:21:08.922Z,1.40
2023-03-21T11:23:40.036Z,1.50
2023-03-21T11:26:12.055Z,1.60
2023-03-21T11:28:41.483Z,1.60
2023-03-21T11:31:09.465Z,2.10
2023-03-21T11:33:45.990Z,1.60
2023-03-21T11:36:18.240Z,2.40
2023-03-21T11:38:49.905Z,1.60
2023-03-21T11:41:40.053Z,1.50
2023-03-21T11:44:07.043Z,1.50
2023-03-21T11:46:41.042Z,1.60
2023-03-21T11:49:09.557Z,1.70
2023-03-21T11:51:53.002Z,1.60
2023-03-21T11:54:35.271Z,1.80
2023-03-21T11:57:37.221Z,1.40
2023-03-21T12:00:22.580Z,1.80
2023-03-21T12:03:21.917Z,2.00
2023-03-21T12:05:56.205Z,1.50
2023-03-21T12:08:38.018Z,1.40
2023-03-21T12:11:37.736Z,2.20
2023-03-21T12:14:31.033Z,1.60
2023-03-21T12:17:06.739Z,1.90
2023-03-21T12:19:50.955Z,1.50
2023-03-21T12:22:47.360Z,1.50
2023-03-21T12:25:30.539Z,1.30
2023-03-21T12:28:32.711Z,1.70
2023-03-21T12:31:18.033Z,1.60
2023-03-21T12:33:44.557Z,1.30
2023-03-21T12:36:27.160Z,1.60
2023-03-21T12:39:18.593Z,1.50
2023-03-21T12:41:57.078Z,1.70
2023-03-21T12:44:29.200Z,1.40
2023-03-21T12:47:01.354Z,1.70
2023-03-21T12:49:36.662Z,1.60
2023-03-21T12:52:11.821Z,1.70
2023-03-21T12:54:42.772Z,1.90
2023-03-21T12:57:15.537Z,1.60
2023-03-21T12:59:50.397Z,1.60
2023-03-21T13:02:36.785Z,1.60
2023-03-21T13:05:10.836Z,1.90
2023-03-21T13:07:43.480Z,1.50
2023-03-21T13:10:16.918Z,2.00
2023-03-21T13:12:51.191Z,1.50
2023-03-21T13:15:39.517Z,1.80
2023-03-21T13:18:53.803Z,1.90
2023-03-21T13:21:41.718Z,1.80
2023-03-21T13:24:24.873Z,2.00
2023-03-21T13:27:28.465Z,1.70
2023-03-21T13:30:00.454Z,1.70
2023-03-21T13:32:31.947Z,1.90
2023-03-21T13:35:01.503Z,1.90
2023-03-21T13:37:35.092Z,1.90
2023-03-21T13:40:12.125Z,1.90
2023-03-21T13:42:46.041Z,1.60
2023-03-21T13:45:31.280Z,1.80
2023-03-21T13:48:00.885Z,1.60
2023-03-21T13:50:36.512Z,1.80
2023-03-21T13:53:14.992Z,1.80
2023-03-21T13:55:47.128Z,1.60
2023-03-21T13:58:37.884Z,2.00
2023-03-21T14:01:10.000Z,1.80
2023-03-21T14:03:36.493Z,1.70
2023-03-21T14:06:03.217Z,1.60
2023-03-21T14:08:37.135Z,1.60
2023-03-21T14:11:07.554Z,2.30
2023-03-21T14:13:38.044Z,1.60
2023-03-21T14:16:17.068Z,1.50
2023-03-21T14:18:54.127Z,1.60
2023-03-21T14:21:25.432Z,2.10
2023-03-21T14:24:07.671Z,1.50
2023-03-21T14:26:48.075Z,1.70
2023-03-21T14:29:31.708Z,1.80
2023-03-21T14:32:00.259Z,1.70
2023-03-21T14:34:29.566Z,1.90
2023-03-21T14:36:58.454Z,1.60
2023-03-21T14:39:29.782Z,2.00
2023-03-21T14:42:02.779Z,1.90
2023-03-21T14:44:54.876Z,1.70
2023-03-21T14:47:26.088Z,1.80
2023-03-21T14:49:53.578Z,1.80
2023-03-21T14:52:22.634Z,1.80
2023-03-21T14:54:49.902Z,1.90
2023-03-21T14:57:23.027Z,2.00
2023-03-21T14:59:53.278Z,2.30
2023-03-21T15:02:25.352Z,1.90
2023-03-21T15:04:55.571Z,2.10
2023-03-21T15:07:26.336Z,2.40
2023-03-21T15:09:58.117Z,1.80
2023-03-21T15:12:24.701Z,1.80
2023-03-21T15:14:51.645Z,1.80
2023-03-21T15:17:19.384Z,1.80
2023-03-21T15:19:45.921Z,1.70
2023-03-21T15:22:23.284Z,1.90
2023-03-21T15:24:54.308Z,1.50
2023-03-21T15:27:24.760Z,1.80
2023-03-21T15:29:56.811Z,1.80
2023-03-21T15:32:26.129Z,1.70
2023-03-21T15:34:56.404Z,1.40
2023-03-21T15:37:28.766Z,2.50
2023-03-21T15:40:09.537Z,2.10
2023-03-21T15:42:41.263Z,1.80
2023-03-21T15:45:32.496Z,1.90
2023-03-21T15:48:03.097Z,1.70
2023-03-21T15:50:39.448Z,1.70
2023-03-21T15:53:17.163Z,1.90
2023-03-21T15:55:52.149Z,1.90
2023-03-21T15:58:25.358Z,2.20
2023-03-21T16:00:55.658Z,2.10
2023-03-21T16:03:30.439Z,2.20
2023-03-21T16:06:15.423Z,1.80
2023-03-21T16:08:47.979Z,1.70
2023-03-21T16:11:27.074Z,1.90
2023-03-21T16:13:55.402Z,1.30
2023-03-21T16:16:27.733Z,1.60
2023-03-21T16:18:56.161Z,1.40
2023-03-21T16:21:28.677Z,1.60
2023-03-21T16:23:56.136Z,1.40
2023-03-21T16:26:25.861Z,1.30
2023-03-21T16:28:53.062Z,1.40
2023-03-21T16:31:22.261Z,1.30
2023-03-21T16:33:49.165Z,1.10
2023-03-21T16:36:19.361Z,1.20
2023-03-21T16:38:47.493Z,1.30
2023-03-21T16:41:14.630Z,1.80
2023-03-21T16:43:45.643Z,1.50
2023-03-21T16:46:13.327Z,1.80
2023-03-21T16:48:41.131Z,1.60
2023-03-21T16:51:13.197Z,1.60
2023-03-21T16:53:39.824Z,1.60
2023-03-21T16:56:06.539Z,1.50
2023-03-21T16:58:32.961Z,1.60
2023-03-21T17:00:59.542Z,2.10
2023-03-21T17:03:26.245Z,1.20
2023-03-21T17:05:52.757Z,1.60
2023-03-21T17:08:21.831Z,1.50
2023-03-21T17:10:48.343Z,2.60
2023-03-21T17:13:14.811Z,1.80
2023-03-21T17:15:42.175Z,2.20
2023-03-21T17:20:38.325Z,2.40
2023-03-21T17:23:05.262Z,2.40
2023-03-21T17:25:31.856Z,1.70
2023-03-21T17:27:58.382Z,2.10
2023-03-21T17:30:33.367Z,2.60
2023-03-21T17:33:00.596Z,2.70
2023-03-21T17:35:27.790Z,2.00
2023-03-21T17:37:58.405Z,1.80
2023-03-21T17:40:28.423Z,3.30
2023-03-21T17:42:56.560Z,3.20
2023-03-21T17:45:23.234Z,2.50
2023-03-21T17:47:50.676Z,2.60
2023-03-21T17:52:50.644Z,2.30
2023-03-21T17:55:21.077Z,2.90
2023-03-21T17:57:49.031Z,2.40
2023-03-21T18:00:22.891Z,2.60
2023-03-21T18:02:50.449Z,2.70
2023-03-21T18:08:08.791Z,2.60
2023-03-21T18:10:31.856Z,9.40
2023-03-21T18:12:59.056Z,11.50
2023-03-21T18:15:30.153Z,3.90
2023-03-21T18:17:57.594Z,3.40
2023-03-21T18:20:44.548Z,2.90
2023-03-21T18:23:14.334Z,2.80
2023-03-21T18:25:41.904Z,2.40
2023-03-21T18:28:11.894Z,2.70
2023-03-21T18:30:56.928Z,3.10
2023-03-21T18:33:27.351Z,3.90
2023-03-21T18:35:58.764Z,4.90
2023-03-21T18:38:27.911Z,3.70
2023-03-21T18:40:55.124Z,3.20
2023-03-21T18:46:08.676Z,3.20
2023-03-21T18:48:35.649Z,2.80
2023-03-21T18:51:03.242Z,2.40
2023-03-21T18:55:57.526Z,3.90
2023-03-21T18:58:25.285Z,2.50
2023-03-21T19:03:34.328Z,1.70
2023-03-21T19:06:04.001Z,2.10
2023-03-21T19:08:31.318Z,1.80
2023-03-21T19:11:03.341Z,1.70
2023-03-21T19:13:32.975Z,1.60
2023-03-21T19:16:02.374Z,2.20
2023-03-21T19:18:50.302Z,2.10
2023-03-21T19:21:19.834Z,2.10
2023-03-21T19:26:33.154Z,2.10
2023-03-21T19:28:59.749Z,2.30
2023-03-21T19:31:26.808Z,2.10
2023-03-21T19:33:53.398Z,2.00
2023-03-21T19:36:22.752Z,2.50
2023-03-21T19:38:49.870Z,2.20
2023-03-21T19:41:16.999Z,2.50
2023-03-21T19:43:53.199Z,2.60
2023-03-21T19:46:24.554Z,2.70
2023-03-21T19:48:56.256Z,2.10
2023-03-21T19:51:30.244Z,2.40
2023-03-21T19:54:03.252Z,2.60
2023-03-21T19:56:31.600Z,2.20
2023-03-21T19:58:58.880Z,2.30
2023-03-21T20:01:26.245Z,2.60
2023-03-21T20:06:19.926Z,2.60
2023-03-21T20:09:37.652Z,2.70
2023-03-21T20:11:33.611Z,2.40
2023-03-21T20:14:02.841Z,2.80
2023-03-21T20:16:34.713Z,2.70
2023-03-21T20:19:08.727Z,2.70
2023-03-21T20:21:46.192Z,3.40
2023-03-21T20:24:14.793Z,3.80
2023-03-21T20:26:41.266Z,3.90
2023-03-21T20:29:48.731Z,4.00
2023-03-21T20:31:54.653Z,3.50
2023-03-21T20:34:21.770Z,4.40
2023-03-21T20:36:49.079Z,5.30
2023-03-21T20:39:15.715Z,3.90
2023-03-21T20:41:42.262Z,2.90
2023-03-21T20:46:56.656Z,2.20
2023-03-21T20:49:24.345Z,3.40
2023-03-21T20:54:38.203Z,2.50
2023-03-21T20:57:05.234Z,3.00
2023-03-21T20:59:32.062Z,2.70
2023-03-21T21:01:58.812Z,2.40
2023-03-21T21:04:48.178Z,2.40
2023-03-21T21:07:20.338Z,2.30
2023-03-21T21:09:47.873Z,2.30
2023-03-21T21:14:43.713Z,2.00
2023-03-21T21:17:28.377Z,2.40
2023-03-21T21:19:56.912Z,2.30
2023-03-21T21:22:23.438Z,2.20
2023-03-21T21:24:49.903Z,2.80
2023-03-21T21:27:16.430Z,2.60
2023-03-21T21:29:46.694Z,2.10
2023-03-21T21:32:16.813Z,2.40
2023-03-21T21:34:43.303Z,2.10
2023-03-21T21:37:09.810Z,2.90
2023-03-21T21:39:38.002Z,3.30
2023-03-21T21:42:05.463Z,3.00
2023-03-21T21:44:32.098Z,2.60
2023-03-21T21:46:58.744Z,2.10
2023-03-21T21:49:25.259Z,2.60
2023-03-21T21:51:51.866Z,3.00
2023-03-21T21:54:18.636Z,2.40
2023-03-21T21:56:48.508Z,2.70
2023-03-21T21:59:18.556Z,2.20
2023-03-21T22:01:46.652Z,2.40
2023-03-21T22:04:14.426Z,2.30
2023-03-21T22:06:42.295Z,2.30
2023-03-21T22:09:09.134Z,2.20
2023-03-21T22:11:36.173Z,2.30
2023-03-21T22:14:03.055Z,2.20
2023-03-21T22:16:29.581Z,2.30
2023-03-21T22:18:56.163Z,2.50
2023-03-21T22:21:22.726Z,2.20
2023-03-21T22:23:49.237Z,2.00
2023-03-21T22:26:16.150Z,2.20
2023-03-21T22:28:43.499Z,2.00
2023-03-21T22:31:12.909Z,2.20
2023-03-21T22:33:39.628Z,1.90
2023-03-21T22:36:06.725Z,1.80
2023-03-21T22:38:34.609Z,2.20
2023-03-21T22:41:05.318Z,2.00
2023-03-21T22:43:34.279Z,1.50
2023-03-21T22:46:05.019Z,1.80
2023-03-21T22:48:32.670Z,1.80
2023-03-21T22:53:26.957Z,2.30
2023-03-21T22:55:53.934Z,2.00
2023-03-21T22:58:20.667Z,2.20
2023-03-21T23:00:47.806Z,2.20
2023-03-21T23:03:16.703Z,1.60
2023-03-21T23:05:44.712Z,1.70
2023-03-21T23:08:12.403Z,2.00
2023-03-21T23:13:06.698Z,1.70
2023-03-21T23:15:33.121Z,1.90
2023-03-21T23:17:59.631Z,2.20
2023-03-21T23:20:26.224Z,2.10
2023-03-21T23:22:52.741Z,2.10
2023-03-21T23:25:20.649Z,1.60
2023-03-21T23:27:47.994Z,1.70
2023-03-21T23:30:14.692Z,2.10
2023-03-21T23:32:41.315Z,1.60
2023-03-21T23:35:08.452Z,1.90
2023-03-21T23:37:35.002Z,2.50
2023-03-21T23:40:01.477Z,1.90
2023-03-21T23:42:29.437Z,2.20
2023-03-21T23:44:56.042Z,1.90
2023-03-21T23:47:22.588Z,1.80
2023-03-21T23:49:50.160Z,1.80
2023-03-21T23:52:16.722Z,1.50
2023-03-21T23:54:43.664Z,2.00
2023-03-21T23:57:10.341Z,2.00
2023-03-21T23:59:36.824Z,2.00
